Language: 


Des rapports , des résumés tant et plus, au choix de chacun....


Données statistiques de la station
Quotidien Rapport Janvier 7, 2017 Unités:  les deux    Anglais   Métrique
« Précédent Jour
Suivant Jour »
Quotidien Hebdomadaire Mensuel Annuel Actuel
  Haut: Bas: Moyen:
Température: TemperatureC °F /  -17.8 °C -0.4 °F /  -18 °C 2 °F /  -16.7 °C
Pt de rosée: DewpointC °F /  -17.8 °C -3.3 °F /  -19.6 °C 1.3 °F /  -17.1 °C
Humidité: Humidity % 0 % 95 %
Vitesse du vent: WindSpeedKMH mph /  0 km/h - 4.2 mph /  6.8 km/h
Rafales: WindSpeedGustKMH mph /  0 km/h - -
Vent:- - SSW
Pression: PressurehPa in /  0 hPa 0.0 in /  0 hPa -
Précipitation: 0.0 in /  0 mm    
Historical Graphs
 
 
Données statistiques pour Janvier 7, 2017
Heure Température Point de rosée Pression Vent Vitesse du vent Refales Humidité Pluie (taux horaire)
TemperatureC °F /  -17.8 °C DewpointC °F /  -17.8 °C PressurehPa in /  0 hPa Calm     Humidity % HourlyPrecipMM in /  0 mm
00:00 -0.4 °F /  -18 °C -3.3 °F /  -19.6 °C 1034.1 in /  35014.6 hPa WSW 13.7 mph /  22 km/h 32.0 mph /  51.5 km/h 81 % 0.0 in /  0 mm
00:10 -0.4 °F /  -18 °C -3.3 °F /  -19.6 °C 1087.9 in /  36836.3 hPa SSW 7.2 mph /  11.6 km/h 14.0 mph /  22.5 km/h 81 % 0.0 in /  0 mm
00:20 -0.4 °F /  -18 °C -3.3 °F /  -19.6 °C 1034.1 in /  35014.6 hPa SW 11.6 mph /  18.7 km/h 14.0 mph /  22.5 km/h 81 % 0.0 in /  0 mm
00:30 -0.4 °F /  -18 °C -3.3 °F /  -19.6 °C 1035.1 in /  35048.5 hPa SSW 6.1 mph /  9.8 km/h 31.4 mph /  50.5 km/h 81 % 0.0 in /  0 mm
00:40 -0.4 °F /  -18 °C -3.3 °F /  -19.6 °C 1035.1 in /  35048.5 hPa South 9.3 mph /  15 km/h 10.5 mph /  16.9 km/h 81 % 0.0 in /  0 mm
00:50 -0.4 °F /  -18 °C -3.3 °F /  -19.6 °C 1035.1 in /  35048.5 hPa South 7.9 mph /  12.7 km/h 10.5 mph /  16.9 km/h 81 % 0.0 in /  0 mm
01:00 -0.4 °F /  -18 °C -3.3 °F /  -19.6 °C 1035.1 in /  35048.5 hPa SSW 6.4 mph /  10.3 km/h 11.9 mph /  19.2 km/h 81 % 0.0 in /  0 mm
01:10 -0.4 °F /  -18 °C -3.3 °F /  -19.6 °C 1035.1 in /  35048.5 hPa SSW 5.0 mph /  8 km/h 9.3 mph /  15 km/h 81 % 0.0 in /  0 mm
01:20 -0.4 °F /  -18 °C -3.3 °F /  -19.6 °C 1035.1 in /  35048.5 hPa South 4.3 mph /  6.9 km/h 11.9 mph /  19.2 km/h 81 % 0.0 in /  0 mm
01:30 -0.4 °F /  -18 °C -3.3 °F /  -19.6 °C 1035.1 in /  35048.5 hPa South 7.9 mph /  12.7 km/h 10.1 mph /  16.3 km/h 81 % 0.0 in /  0 mm
01:40 -0.4 °F /  -18 °C -3.3 °F /  -19.6 °C 1034.1 in /  35014.6 hPa South 9.7 mph /  15.6 km/h 11.9 mph /  19.2 km/h 81 % 0.0 in /  0 mm
01:50 -0.4 °F /  -18 °C -3.3 °F /  -19.6 °C 1034.1 in /  35014.6 hPa SSW 6.9 mph /  11.1 km/h 12.6 mph /  20.3 km/h 81 % 0.0 in /  0 mm
02:00 -0.4 °F /  -18 °C -3.3 °F /  -19.6 °C 1034.1 in /  35014.6 hPa SSW 5.0 mph /  8 km/h 12.6 mph /  20.3 km/h 81 % 0.0 in /  0 mm
09:00 0.7 °F /  -17.4 °C -1.4 °F /  -18.6 °C 1031.0 in /  34909.7 hPa South 5.0 mph /  8 km/h 10.5 mph /  16.9 km/h 86 % 0.0 in /  0 mm
09:10 0.7 °F /  -17.4 °C -1.4 °F /  -18.6 °C 1031.0 in /  34909.7 hPa South 6.1 mph /  9.8 km/h 15.4 mph /  24.8 km/h 86 % 0.0 in /  0 mm
09:14 0.7 °F /  -17.4 °C -1.4 °F /  -18.6 °C 1031.0 in /  34909.7 hPa SSW 7.9 mph /  12.7 km/h 15.4 mph /  24.8 km/h 86 % 0.0 in /  0 mm
09:20 0.7 °F /  -17.4 °C -1.2 °F /  -18.4 °C 1031.0 in /  34909.7 hPa SW 9.0 mph /  14.5 km/h 14.0 mph /  22.5 km/h 87 % 0.0 in /  0 mm
09:24 0.7 °F /  -17.4 °C -1.2 °F /  -18.4 °C 1031.0 in /  34909.7 hPa SSW 8.7 mph /  14 km/h 13.7 mph /  22 km/h 87 % 0.0 in /  0 mm
09:30 0.8 °F /  -17.3 °C -1.1 °F /  -18.4 °C 1031.0 in /  34909.7 hPa South 4.7 mph /  7.6 km/h 11.9 mph /  19.2 km/h 87 % 0.0 in /  0 mm
09:34 0.8 °F /  -17.3 °C -1.0 °F /  -18.3 °C 1031.0 in /  34909.7 hPa SSW 9.0 mph /  14.5 km/h 11.9 mph /  19.2 km/h 88 % 0.0 in /  0 mm
09:40 0.9 °F /  -17.3 °C -0.9 °F /  -18.3 °C 1031.0 in /  34909.7 hPa WSW 6.4 mph /  10.3 km/h 11.6 mph /  18.7 km/h 88 % 0.0 in /  0 mm
09:45 0.9 °F /  -17.3 °C -0.7 °F /  -18.2 °C 1031.0 in /  34909.7 hPa SSW 7.9 mph /  12.7 km/h 10.8 mph /  17.4 km/h 89 % 0.0 in /  0 mm
09:50 0.9 °F /  -17.3 °C -0.7 °F /  -18.2 °C 1031.0 in /  34909.7 hPa SSW 6.4 mph /  10.3 km/h 12.2 mph /  19.6 km/h 89 % 0.0 in /  0 mm
09:55 0.9 °F /  -17.3 °C -0.7 °F /  -18.2 °C 1031.0 in /  34909.7 hPa SSW 6.1 mph /  9.8 km/h 12.2 mph /  19.6 km/h 89 % 0.0 in /  0 mm
10:00 0.9 °F /  -17.3 °C -0.7 °F /  -18.2 °C 1031.0 in /  34909.7 hPa SSW 10.1 mph /  16.3 km/h 11.6 mph /  18.7 km/h 89 % 0.0 in /  0 mm
10:05 0.9 °F /  -17.3 °C -0.6 °F /  -18.1 °C 1031.0 in /  34909.7 hPa WSW 9.0 mph /  14.5 km/h 14.3 mph /  23 km/h 90 % 0.0 in /  0 mm
10:10 1.0 °F /  -17.2 °C -0.5 °F /  -18.1 °C 1031.0 in /  34909.7 hPa SSW 11.9 mph /  19.2 km/h 14.3 mph /  23 km/h 90 % 0.0 in /  0 mm
10:15 1.0 °F /  -17.2 °C -0.5 °F /  -18.1 °C 1031.0 in /  34909.7 hPa SW 6.9 mph /  11.1 km/h 13.7 mph /  22 km/h 90 % 0.0 in /  0 mm
10:20 1.0 °F /  -17.2 °C -0.5 °F /  -18.1 °C 1031.0 in /  34909.7 hPa South 5.8 mph /  9.3 km/h 12.6 mph /  20.3 km/h 90 % 0.0 in /  0 mm
10:25 1.0 °F /  -17.2 °C -0.3 °F /  -17.9 °C 1031.0 in /  34909.7 hPa SSW 6.9 mph /  11.1 km/h 11.9 mph /  19.2 km/h 91 % 0.0 in /  0 mm
10:30 1.0 °F /  -17.2 °C -0.3 °F /  -17.9 °C 1031.0 in /  34909.7 hPa South 13.7 mph /  22 km/h 13.7 mph /  22 km/h 91 % 0.0 in /  0 mm
10:35 0.9 °F /  -17.3 °C -0.3 °F /  -17.9 °C 1031.0 in /  34909.7 hPa SSW 6.4 mph /  10.3 km/h 15.4 mph /  24.8 km/h 92 % 0.0 in /  0 mm
10:40 0.9 °F /  -17.3 °C -0.3 °F /  -17.9 °C 1031.0 in /  34909.7 hPa South 8.7 mph /  14 km/h 15.4 mph /  24.8 km/h 92 % 0.0 in /  0 mm
10:45 0.9 °F /  -17.3 °C -0.3 °F /  -17.9 °C 1031.0 in /  34909.7 hPa South 9.7 mph /  15.6 km/h 13.7 mph /  22 km/h 92 % 0.0 in /  0 mm
10:50 0.9 °F /  -17.3 °C -0.1 °F /  -17.8 °C 1031.0 in /  34909.7 hPa SSW 9.7 mph /  15.6 km/h 16.3 mph /  26.2 km/h 93 % 0.0 in /  0 mm
10:55 0.9 °F /  -17.3 °C -0.1 °F /  -17.8 °C 1031.0 in /  34909.7 hPa South 9.7 mph /  15.6 km/h 16.3 mph /  26.2 km/h 93 % 0.0 in /  0 mm
11:00 0.9 °F /  -17.3 °C -0.1 °F /  -17.8 °C 1031.0 in /  34909.7 hPa SSW 7.2 mph /  11.6 km/h 13.7 mph /  22 km/h 93 % 0.0 in /  0 mm
11:05 0.9 °F /  -17.3 °C -0.1 °F /  -17.8 °C 1031.0 in /  34909.7 hPa South 8.7 mph /  14 km/h 13.7 mph /  22 km/h 93 % 0.0 in /  0 mm
11:10 0.9 °F /  -17.3 °C 0.0 °F /  -17.8 °C 1030.0 in /  34875.8 hPa South 6.9 mph /  11.1 km/h 12.6 mph /  20.3 km/h 94 % 0.0 in /  0 mm
11:15 0.9 °F /  -17.3 °C 0.0 °F /  -17.8 °C 1030.0 in /  34875.8 hPa SW 6.4 mph /  10.3 km/h 12.2 mph /  19.6 km/h 94 % 0.0 in /  0 mm
11:20 0.9 °F /  -17.3 °C 0.0 °F /  -17.8 °C 1030.0 in /  34875.8 hPa SW 10.1 mph /  16.3 km/h 12.2 mph /  19.6 km/h 94 % 0.0 in /  0 mm
11:25 0.9 °F /  -17.3 °C 0.0 °F /  -17.8 °C 1031.0 in /  34909.7 hPa SSW 9.7 mph /  15.6 km/h 12.2 mph /  19.6 km/h 94 % 0.0 in /  0 mm
11:30 0.9 °F /  -17.3 °C 0.0 °F /  -17.8 °C 1031.0 in /  34909.7 hPa WSW 7.9 mph /  12.7 km/h 12.6 mph /  20.3 km/h 94 % 0.0 in /  0 mm
11:35 1.0 °F /  -17.2 °C 0.1 °F /  -17.7 °C 1031.0 in /  34909.7 hPa SSW 9.0 mph /  14.5 km/h 12.6 mph /  20.3 km/h 94 % 0.0 in /  0 mm
11:40 1.0 °F /  -17.2 °C 0.3 °F /  -17.6 °C 1031.0 in /  34909.7 hPa South 6.9 mph /  11.1 km/h 12.2 mph /  19.6 km/h 95 % 0.0 in /  0 mm
11:45 1.0 °F /  -17.2 °C 0.3 °F /  -17.6 °C 1031.0 in /  34909.7 hPa SSW 9.3 mph /  15 km/h 13.7 mph /  22 km/h 95 % 0.0 in /  0 mm
11:50 1.1 °F /  -17.2 °C 0.4 °F /  -17.6 °C 1031.0 in /  34909.7 hPa SSW 6.4 mph /  10.3 km/h 13.7 mph /  22 km/h 95 % 0.0 in /  0 mm
11:55 1.1 °F /  -17.2 °C 0.4 °F /  -17.6 °C 1031.0 in /  34909.7 hPa SW 14.0 mph /  22.5 km/h 14.0 mph /  22.5 km/h 95 % 0.0 in /  0 mm
12:00 1.2 °F /  -17.1 °C 0.6 °F /  -17.4 °C 1031.0 in /  34909.7 hPa South 6.4 mph /  10.3 km/h 14.0 mph /  22.5 km/h 96 % 0.0 in /  0 mm
12:05 1.2 °F /  -17.1 °C 0.6 °F /  -17.4 °C 1031.0 in /  34909.7 hPa South 6.9 mph /  11.1 km/h 12.6 mph /  20.3 km/h 96 % 0.0 in /  0 mm
12:10 1.3 °F /  -17.1 °C 0.7 °F /  -17.4 °C 1031.0 in /  34909.7 hPa SSW 6.9 mph /  11.1 km/h 12.6 mph /  20.3 km/h 96 % 0.0 in /  0 mm
12:15 1.3 °F /  -17.1 °C 0.7 °F /  -17.4 °C 1031.0 in /  34909.7 hPa WSW 13.7 mph /  22 km/h 14.0 mph /  22.5 km/h 96 % 0.0 in /  0 mm
12:20 1.3 °F /  -17.1 °C 0.7 °F /  -17.4 °C 1031.0 in /  34909.7 hPa SSW 9.7 mph /  15.6 km/h 14.0 mph /  22.5 km/h 96 % 0.0 in /  0 mm
12:25 1.4 °F /  -17 °C 0.8 °F /  -17.3 °C 1031.0 in /  34909.7 hPa SSW 9.7 mph /  15.6 km/h 11.6 mph /  18.7 km/h 96 % 0.0 in /  0 mm
12:30 1.4 °F /  -17 °C 0.8 °F /  -17.3 °C 1031.0 in /  34909.7 hPa SSW 6.4 mph /  10.3 km/h 11.6 mph /  18.7 km/h 96 % 0.0 in /  0 mm
12:35 1.4 °F /  -17 °C 0.9 °F /  -17.3 °C 1031.0 in /  34909.7 hPa WSW 7.9 mph /  12.7 km/h 11.6 mph /  18.7 km/h 97 % 0.0 in /  0 mm
12:40 1.4 °F /  -17 °C 1.1 °F /  -17.2 °C 1031.0 in /  34909.7 hPa SSW 4.7 mph /  7.6 km/h 11.9 mph /  19.2 km/h 97 % 0.0 in /  0 mm
12:45 1.4 °F /  -17 °C 1.1 °F /  -17.2 °C 1031.0 in /  34909.7 hPa SSW 8.7 mph /  14 km/h 11.9 mph /  19.2 km/h 97 % 0.0 in /  0 mm
12:46 1.4 °F /  -17 °C 1.1 °F /  -17.2 °C 1031.0 in /  34909.7 hPa SW 7.2 mph /  11.6 km/h 10.1 mph /  16.3 km/h 97 % 0.0 in /  0 mm
12:51 1.4 °F /  -17 °C 1.1 °F /  -17.2 °C 1031.0 in /  34909.7 hPa SSW 6.9 mph /  11.1 km/h 10.1 mph /  16.3 km/h 97 % 0.0 in /  0 mm
12:56 1.6 °F /  -16.9 °C 1.2 °F /  -17.1 °C 1031.0 in /  34909.7 hPa SSW 6.1 mph /  9.8 km/h 10.5 mph /  16.9 km/h 97 % 0.0 in /  0 mm
13:01 1.6 °F /  -16.9 °C 1.2 °F /  -17.1 °C 1031.0 in /  34909.7 hPa SW 9.3 mph /  15 km/h 12.2 mph /  19.6 km/h 97 % 0.0 in /  0 mm
13:06 1.7 °F /  -16.8 °C 1.2 °F /  -17.1 °C 1031.0 in /  34909.7 hPa SSW 9.7 mph /  15.6 km/h 12.2 mph /  19.6 km/h 97 % 0.0 in /  0 mm
13:11 1.7 °F /  -16.8 °C 1.2 °F /  -17.1 °C 1030.0 in /  34875.8 hPa SSW 12.6 mph /  20.3 km/h 12.6 mph /  20.3 km/h 97 % 0.0 in /  0 mm
13:16 1.7 °F /  -16.8 °C 1.2 °F /  -17.1 °C 1030.0 in /  34875.8 hPa SSW 9.7 mph /  15.6 km/h 12.6 mph /  20.3 km/h 97 % 0.0 in /  0 mm
13:21 1.7 °F /  -16.8 °C 1.2 °F /  -17.1 °C 1030.0 in /  34875.8 hPa SW 7.2 mph /  11.6 km/h 12.2 mph /  19.6 km/h 97 % 0.0 in /  0 mm
13:26 1.7 °F /  -16.8 °C 1.2 °F /  -17.1 °C 1030.0 in /  34875.8 hPa SSW 11.6 mph /  18.7 km/h 11.9 mph /  19.2 km/h 97 % 0.0 in /  0 mm
13:31 1.7 °F /  -16.8 °C 1.2 °F /  -17.1 °C 1030.0 in /  34875.8 hPa South 10.1 mph /  16.3 km/h 11.6 mph /  18.7 km/h 97 % 0.0 in /  0 mm
13:36 1.7 °F /  -16.8 °C 1.4 °F /  -17 °C 1030.0 in /  34875.8 hPa WSW 6.9 mph /  11.1 km/h 10.1 mph /  16.3 km/h 98 % 0.0 in /  0 mm
13:41 1.7 °F /  -16.8 °C 1.4 °F /  -17 °C 1030.0 in /  34875.8 hPa South 9.0 mph /  14.5 km/h 10.5 mph /  16.9 km/h 98 % 0.0 in /  0 mm
13:46 1.8 °F /  -16.8 °C 1.5 °F /  -16.9 °C 1030.0 in /  34875.8 hPa SSW 6.4 mph /  10.3 km/h 10.5 mph /  16.9 km/h 98 % 0.0 in /  0 mm
13:51 1.8 °F /  -16.8 °C 1.5 °F /  -16.9 °C 1030.0 in /  34875.8 hPa SW 6.9 mph /  11.1 km/h 10.5 mph /  16.9 km/h 98 % 0.0 in /  0 mm
13:56 1.8 °F /  -16.8 °C 1.5 °F /  -16.9 °C 1030.0 in /  34875.8 hPa WSW 6.4 mph /  10.3 km/h 10.5 mph /  16.9 km/h 98 % 0.0 in /  0 mm
14:01 1.8 °F /  -16.8 °C 1.5 °F /  -16.9 °C 1030.0 in /  34875.8 hPa SSW 5.0 mph /  8 km/h 9.3 mph /  15 km/h 98 % 0.0 in /  0 mm
14:06 1.9 °F /  -16.7 °C 1.6 °F /  -16.9 °C 1030.0 in /  34875.8 hPa SSW 5.5 mph /  8.9 km/h 9.3 mph /  15 km/h 98 % 0.0 in /  0 mm
14:11 1.9 °F /  -16.7 °C 1.6 °F /  -16.9 °C 1030.0 in /  34875.8 hPa SSW 6.1 mph /  9.8 km/h 9.0 mph /  14.5 km/h 98 % 0.0 in /  0 mm
14:16 1.9 °F /  -16.7 °C 1.7 °F /  -16.8 °C 1030.0 in /  34875.8 hPa SSW 6.1 mph /  9.8 km/h 9.0 mph /  14.5 km/h 98 % 0.0 in /  0 mm
14:21 1.9 °F /  -16.7 °C 1.7 °F /  -16.8 °C 1030.0 in /  34875.8 hPa SW 5.8 mph /  9.3 km/h 7.6 mph /  12.2 km/h 98 % 0.0 in /  0 mm
14:26 2.1 °F /  -16.6 °C 1.8 °F /  -16.8 °C 1030.0 in /  34875.8 hPa SW 5.8 mph /  9.3 km/h 7.6 mph /  12.2 km/h 98 % 0.0 in /  0 mm
14:31 2.2 °F /  -16.6 °C 1.9 °F /  -16.7 °C 1030.0 in /  34875.8 hPa SSW 5.8 mph /  9.3 km/h 7.6 mph /  12.2 km/h 98 % 0.0 in /  0 mm
14:36 2.2 °F /  -16.6 °C 1.9 °F /  -16.7 °C 1030.0 in /  34875.8 hPa SW 4.7 mph /  7.6 km/h 7.6 mph /  12.2 km/h 98 % 0.0 in /  0 mm
14:41 2.3 °F /  -16.5 °C 1.9 °F /  -16.7 °C 1030.0 in /  34875.8 hPa SSW 7.9 mph /  12.7 km/h 9.0 mph /  14.5 km/h 98 % 0.0 in /  0 mm
14:46 2.3 °F /  -16.5 °C 1.9 °F /  -16.7 °C 1030.0 in /  34875.8 hPa SSW 4.3 mph /  6.9 km/h 9.3 mph /  15 km/h 98 % 0.0 in /  0 mm
14:51 2.3 °F /  -16.5 °C 2.1 °F /  -16.6 °C 1030.0 in /  34875.8 hPa SSW 6.4 mph /  10.3 km/h 9.3 mph /  15 km/h 98 % 0.0 in /  0 mm
14:56 2.3 °F /  -16.5 °C 2.1 °F /  -16.6 °C 1030.0 in /  34875.8 hPa SSW 4.0 mph /  6.4 km/h 6.9 mph /  11.1 km/h 98 % 0.0 in /  0 mm
15:01 2.3 °F /  -16.5 °C 2.1 °F /  -16.6 °C 1030.0 in /  34875.8 hPa South 5.8 mph /  9.3 km/h 6.9 mph /  11.1 km/h 98 % 0.0 in /  0 mm
15:06 2.3 °F /  -16.5 °C 2.1 °F /  -16.6 °C 1030.0 in /  34875.8 hPa SSW 2.1 mph /  3.4 km/h 10.5 mph /  16.9 km/h 98 % 0.0 in /  0 mm
15:11 2.4 °F /  -16.4 °C 2.2 °F /  -16.6 °C 1029.0 in /  34841.9 hPa SSW 5.8 mph /  9.3 km/h 10.5 mph /  16.9 km/h 98 % 0.0 in /  0 mm
15:16 2.4 °F /  -16.4 °C 2.2 °F /  -16.6 °C 1029.0 in /  34841.9 hPa SSW 4.7 mph /  7.6 km/h 7.6 mph /  12.2 km/h 98 % 0.0 in /  0 mm
15:21 2.4 °F /  -16.4 °C 2.2 °F /  -16.6 °C 1029.0 in /  34841.9 hPa SSW 5.8 mph /  9.3 km/h 6.9 mph /  11.1 km/h 98 % 0.0 in /  0 mm
15:27 2.4 °F /  -16.4 °C 2.2 °F /  -16.6 °C 1029.0 in /  34841.9 hPa SW 6.9 mph /  11.1 km/h 7.2 mph /  11.6 km/h 98 % 0.0 in /  0 mm
15:31 2.3 °F /  -16.5 °C 2.1 °F /  -16.6 °C 1029.0 in /  34841.9 hPa South 4.3 mph /  6.9 km/h 7.2 mph /  11.6 km/h 98 % 0.0 in /  0 mm
15:37 2.3 °F /  -16.5 °C 2.1 °F /  -16.6 °C 1030.0 in /  34875.8 hPa SW 5.8 mph /  9.3 km/h 7.9 mph /  12.7 km/h 98 % 0.0 in /  0 mm
15:41 2.3 °F /  -16.5 °C 2.1 °F /  -16.6 °C 1030.0 in /  34875.8 hPa SSW 6.1 mph /  9.8 km/h 9.0 mph /  14.5 km/h 98 % 0.0 in /  0 mm
15:47 2.4 °F /  -16.4 °C 2.2 °F /  -16.6 °C 1030.0 in /  34875.8 hPa SSW 6.1 mph /  9.8 km/h 9.0 mph /  14.5 km/h 98 % 0.0 in /  0 mm
15:52 2.4 °F /  -16.4 °C 2.2 °F /  -16.6 °C 1029.0 in /  34841.9 hPa SW 6.9 mph /  11.1 km/h 9.3 mph /  15 km/h 98 % 0.0 in /  0 mm
15:56 2.4 °F /  -16.4 °C 2.2 °F /  -16.6 °C 1029.0 in /  34841.9 hPa SW 6.1 mph /  9.8 km/h 9.3 mph /  15 km/h 98 % 0.0 in /  0 mm
16:01 2.4 °F /  -16.4 °C 2.2 °F /  -16.6 °C 1029.0 in /  34841.9 hPa SSW 5.8 mph /  9.3 km/h 8.7 mph /  14 km/h 98 % 0.0 in /  0 mm
16:07 2.3 °F /  -16.5 °C 2.1 °F /  -16.6 °C 1030.0 in /  34875.8 hPa SW 5.8 mph /  9.3 km/h 9.0 mph /  14.5 km/h 98 % 0.0 in /  0 mm
16:12 2.3 °F /  -16.5 °C 2.1 °F /  -16.6 °C 1030.0 in /  34875.8 hPa WSW 6.1 mph /  9.8 km/h 9.0 mph /  14.5 km/h 98 % 0.0 in /  0 mm
16:17 2.3 °F /  -16.5 °C 2.1 °F /  -16.6 °C 1030.0 in /  34875.8 hPa SW 5.5 mph /  8.9 km/h 8.7 mph /  14 km/h 98 % 0.0 in /  0 mm
16:22 2.3 °F /  -16.5 °C 2.1 °F /  -16.6 °C 1029.0 in /  34841.9 hPa SSW 4.3 mph /  6.9 km/h 9.0 mph /  14.5 km/h 98 % 0.0 in /  0 mm
16:27 2.4 °F /  -16.4 °C 2.2 °F /  -16.6 °C 1029.0 in /  34841.9 hPa SSW 9.0 mph /  14.5 km/h 9.0 mph /  14.5 km/h 98 % 0.0 in /  0 mm
16:31 2.4 °F /  -16.4 °C 2.2 °F /  -16.6 °C 1029.0 in /  34841.9 hPa SW 5.5 mph /  8.9 km/h 9.0 mph /  14.5 km/h 98 % 0.0 in /  0 mm
16:37 2.4 °F /  -16.4 °C 2.2 °F /  -16.6 °C 1029.0 in /  34841.9 hPa SW 5.0 mph /  8 km/h 9.0 mph /  14.5 km/h 98 % 0.0 in /  0 mm
16:42 2.4 °F /  -16.4 °C 2.2 °F /  -16.6 °C 1029.0 in /  34841.9 hPa SSW 5.0 mph /  8 km/h 7.2 mph /  11.6 km/h 98 % 0.0 in /  0 mm
16:47 2.4 °F /  -16.4 °C 2.2 °F /  -16.6 °C 1029.0 in /  34841.9 hPa Calm   7.2 mph /  11.6 km/h 98 % 0.0 in /  0 mm
16:52 2.4 °F /  -16.4 °C 2.2 °F /  -16.6 °C 1029.0 in /  34841.9 hPa SW 3.2 mph /  5.1 km/h 7.2 mph /  11.6 km/h 98 % 0.0 in /  0 mm
16:57 2.4 °F /  -16.4 °C 2.2 °F /  -16.6 °C 1029.0 in /  34841.9 hPa South 5.0 mph /  8 km/h 6.1 mph /  9.8 km/h 98 % 0.0 in /  0 mm
17:02 2.4 °F /  -16.4 °C 2.2 °F /  -16.6 °C 1029.0 in /  34841.9 hPa SSW 3.2 mph /  5.1 km/h 5.8 mph /  9.3 km/h 98 % 0.0 in /  0 mm
17:07 2.4 °F /  -16.4 °C 2.2 °F /  -16.6 °C 1030.0 in /  34875.8 hPa SSW 5.5 mph /  8.9 km/h 6.9 mph /  11.1 km/h 98 % 0.0 in /  0 mm
17:12 2.4 °F /  -16.4 °C 2.2 °F /  -16.6 °C 1030.0 in /  34875.8 hPa Calm   6.9 mph /  11.1 km/h 98 % 0.0 in /  0 mm
17:17 2.4 °F /  -16.4 °C 2.2 °F /  -16.6 °C 1030.0 in /  34875.8 hPa SSW 4.3 mph /  6.9 km/h 5.0 mph /  8 km/h 98 % 0.0 in /  0 mm
17:22 2.4 °F /  -16.4 °C 2.2 °F /  -16.6 °C 1030.0 in /  34875.8 hPa Calm   5.5 mph /  8.9 km/h 98 % 0.0 in /  0 mm
17:27 2.4 °F /  -16.4 °C 2.2 °F /  -16.6 °C 1030.0 in /  34875.8 hPa Calm   5.5 mph /  8.9 km/h 98 % 0.0 in /  0 mm
17:32 2.4 °F /  -16.4 °C 2.2 °F /  -16.6 °C 1030.0 in /  34875.8 hPa Calm   4.7 mph /  7.6 km/h 98 % 0.0 in /  0 mm
17:37 2.4 °F /  -16.4 °C 2.2 °F /  -16.6 °C 1030.0 in /  34875.8 hPa SSW 5.8 mph /  9.3 km/h 5.8 mph /  9.3 km/h 98 % 0.0 in /  0 mm
17:42 2.4 °F /  -16.4 °C 2.2 °F /  -16.6 °C 1030.0 in /  34875.8 hPa WSW 3.2 mph /  5.1 km/h 5.8 mph /  9.3 km/h 98 % 0.0 in /  0 mm
17:47 2.4 °F /  -16.4 °C 2.2 °F /  -16.6 °C 1030.0 in /  34875.8 hPa Calm   5.0 mph /  8 km/h 98 % 0.0 in /  0 mm
17:52 2.3 °F /  -16.5 °C 2.1 °F /  -16.6 °C 1030.0 in /  34875.8 hPa Calm   5.0 mph /  8 km/h 98 % 0.0 in /  0 mm
17:57 2.3 °F /  -16.5 °C 2.1 °F /  -16.6 °C 1030.0 in /  34875.8 hPa Calm   3.5 mph /  5.6 km/h 98 % 0.0 in /  0 mm
18:02 2.3 °F /  -16.5 °C 2.1 °F /  -16.6 °C 1030.0 in /  34875.8 hPa SSW 3.2 mph /  5.1 km/h 3.5 mph /  5.6 km/h 98 % 0.0 in /  0 mm
18:07 2.3 °F /  -16.5 °C 2.1 °F /  -16.6 °C 1030.0 in /  34875.8 hPa Calm   3.5 mph /  5.6 km/h 98 % 0.0 in /  0 mm
18:12 2.3 °F /  -16.5 °C 2.1 °F /  -16.6 °C 1030.0 in /  34875.8 hPa Calm     98 % 0.0 in /  0 mm
18:17 2.3 °F /  -16.5 °C 2.1 °F /  -16.6 °C 1030.0 in /  34875.8 hPa Calm     98 % 0.0 in /  0 mm
18:22 2.3 °F /  -16.5 °C 2.1 °F /  -16.6 °C 1030.0 in /  34875.8 hPa Calm     98 % 0.0 in /  0 mm
18:27 2.3 °F /  -16.5 °C 2.1 °F /  -16.6 °C 1030.0 in /  34875.8 hPa Calm   3.5 mph /  5.6 km/h 98 % 0.0 in /  0 mm
18:32 2.3 °F /  -16.5 °C 2.1 °F /  -16.6 °C 1030.0 in /  34875.8 hPa Calm   3.5 mph /  5.6 km/h 98 % 0.0 in /  0 mm
18:37 2.4 °F /  -16.4 °C 2.2 °F /  -16.6 °C 1030.0 in /  34875.8 hPa Calm     98 % 0.0 in /  0 mm
18:42 2.4 °F /  -16.4 °C 2.2 °F /  -16.6 °C 1030.0 in /  34875.8 hPa Calm     98 % 0.0 in /  0 mm
18:47 2.4 °F /  -16.4 °C 2.2 °F /  -16.6 °C 1030.0 in /  34875.8 hPa Calm     98 % 0.0 in /  0 mm
18:52 2.3 °F /  -16.5 °C 2.1 °F /  -16.6 °C 1030.0 in /  34875.8 hPa Calm     98 % 0.0 in /  0 mm
18:57 2.3 °F /  -16.5 °C 2.1 °F /  -16.6 °C 1030.0 in /  34875.8 hPa Calm     98 % 0.0 in /  0 mm
19:02 2.3 °F /  -16.5 °C 2.1 °F /  -16.6 °C 1030.0 in /  34875.8 hPa Calm     98 % 0.0 in /  0 mm
19:08 0.0 °F /  -17.8 °C 2.1 °F /  -16.6 °C 0.0 in /  0 hPa Calm     0 % 0.0 in /  0 mm
19:13 2.3 °F /  -16.5 °C 2.1 °F /  -16.6 °C 1030.0 in /  34875.8 hPa Calm     98 % 0.0 in /  0 mm
19:18 2.3 °F /  -16.5 °C 2.1 °F /  -16.6 °C 1030.0 in /  34875.8 hPa West 1.8 mph /  2.9 km/h 1.8 mph /  2.9 km/h 98 % 0.0 in /  0 mm
19:23 2.3 °F /  -16.5 °C 2.1 °F /  -16.6 °C 1030.0 in /  34875.8 hPa Calm   1.8 mph /  2.9 km/h 98 % 0.0 in /  0 mm
19:28 2.4 °F /  -16.4 °C 2.2 °F /  -16.6 °C 1030.0 in /  34875.8 hPa Calm     98 % 0.0 in /  0 mm
19:33 2.4 °F /  -16.4 °C 2.2 °F /  -16.6 °C 1030.0 in /  34875.8 hPa Calm     98 % 0.0 in /  0 mm
19:38 2.6 °F /  -16.3 °C 2.3 °F /  -16.5 °C 1030.0 in /  34875.8 hPa Calm     98 % 0.0 in /  0 mm
19:43 2.6 °F /  -16.3 °C 2.3 °F /  -16.5 °C 1030.0 in /  34875.8 hPa Calm     98 % 0.0 in /  0 mm
19:48 2.6 °F /  -16.3 °C 2.3 °F /  -16.5 °C 1030.0 in /  34875.8 hPa Calm     98 % 0.0 in /  0 mm
19:53 2.7 °F /  -16.3 °C 2.4 °F /  -16.4 °C 1030.0 in /  34875.8 hPa Calm     98 % 0.0 in /  0 mm
19:58 2.7 °F /  -16.3 °C 2.4 °F /  -16.4 °C 1030.0 in /  34875.8 hPa Calm     98 % 0.0 in /  0 mm
20:03 2.7 °F /  -16.3 °C 2.4 °F /  -16.4 °C 1030.0 in /  34875.8 hPa Calm     98 % 0.0 in /  0 mm
20:08 2.7 °F /  -16.3 °C 2.4 °F /  -16.4 °C 1030.0 in /  34875.8 hPa Calm     98 % 0.0 in /  0 mm
20:13 2.7 °F /  -16.3 °C 2.4 °F /  -16.4 °C 1030.0 in /  34875.8 hPa Calm     98 % 0.0 in /  0 mm
20:18 2.7 °F /  -16.3 °C 2.4 °F /  -16.4 °C 1030.0 in /  34875.8 hPa West 4.7 mph /  7.6 km/h 5.5 mph /  8.9 km/h 98 % 0.0 in /  0 mm
20:23 2.7 °F /  -16.3 °C 2.4 °F /  -16.4 °C 1030.0 in /  34875.8 hPa Calm   5.5 mph /  8.9 km/h 98 % 0.0 in /  0 mm
20:28 2.7 °F /  -16.3 °C 2.4 °F /  -16.4 °C 1030.0 in /  34875.8 hPa Calm   5.5 mph /  8.9 km/h 98 % 0.0 in /  0 mm
20:33 2.7 °F /  -16.3 °C 2.4 °F /  -16.4 °C 1030.0 in /  34875.8 hPa Calm     98 % 0.0 in /  0 mm
20:38 2.7 °F /  -16.3 °C 2.4 °F /  -16.4 °C 1030.0 in /  34875.8 hPa Calm   1.4 mph /  2.3 km/h 98 % 0.0 in /  0 mm
20:43 2.7 °F /  -16.3 °C 2.4 °F /  -16.4 °C 1030.0 in /  34875.8 hPa Calm   1.4 mph /  2.3 km/h 98 % 0.0 in /  0 mm
20:48 2.7 °F /  -16.3 °C 2.4 °F /  -16.4 °C 1030.0 in /  34875.8 hPa Calm     98 % 0.0 in /  0 mm
20:53 2.7 °F /  -16.3 °C 2.4 °F /  -16.4 °C 1030.0 in /  34875.8 hPa Calm     98 % 0.0 in /  0 mm
20:58 2.7 °F /  -16.3 °C 2.4 °F /  -16.4 °C 1030.0 in /  34875.8 hPa Calm     98 % 0.0 in /  0 mm
21:03 2.7 °F /  -16.3 °C 2.4 °F /  -16.4 °C 1030.0 in /  34875.8 hPa Calm     98 % 0.0 in /  0 mm
21:08 2.8 °F /  -16.2 °C 2.6 °F /  -16.3 °C 1030.0 in /  34875.8 hPa Calm     98 % 0.0 in /  0 mm
21:13 2.9 °F /  -16.2 °C 2.7 °F /  -16.3 °C 1030.0 in /  34875.8 hPa Calm     98 % 0.0 in /  0 mm
21:18 2.9 °F /  -16.2 °C 2.7 °F /  -16.3 °C 1030.0 in /  34875.8 hPa Calm     98 % 0.0 in /  0 mm
21:23 2.9 °F /  -16.2 °C 2.7 °F /  -16.3 °C 1030.0 in /  34875.8 hPa Calm     98 % 0.0 in /  0 mm
21:28 2.9 °F /  -16.2 °C 2.7 °F /  -16.3 °C 1030.0 in /  34875.8 hPa Calm     98 % 0.0 in /  0 mm
21:33 2.9 °F /  -16.2 °C 2.7 °F /  -16.3 °C 1030.0 in /  34875.8 hPa Calm     98 % 0.0 in /  0 mm
21:38 2.9 °F /  -16.2 °C 2.7 °F /  -16.3 °C 1030.0 in /  34875.8 hPa Calm     98 % 0.0 in /  0 mm
21:43 3.1 °F /  -16.1 °C 2.8 °F /  -16.2 °C 1030.0 in /  34875.8 hPa Calm     98 % 0.0 in /  0 mm
21:48 3.1 °F /  -16.1 °C 2.8 °F /  -16.2 °C 1030.0 in /  34875.8 hPa Calm     98 % 0.0 in /  0 mm
21:53 3.1 °F /  -16.1 °C 2.8 °F /  -16.2 °C 1030.0 in /  34875.8 hPa Calm     98 % 0.0 in /  0 mm
21:58 3.1 °F /  -16.1 °C 2.8 °F /  -16.2 °C 1030.0 in /  34875.8 hPa Calm     98 % 0.0 in /  0 mm
22:03 3.2 °F /  -16 °C 2.9 °F /  -16.2 °C 1030.0 in /  34875.8 hPa Calm     98 % 0.0 in /  0 mm
22:08 3.2 °F /  -16 °C 2.9 °F /  -16.2 °C 1030.0 in /  34875.8 hPa Calm     98 % 0.0 in /  0 mm
22:13 3.2 °F /  -16 °C 2.9 °F /  -16.2 °C 1030.0 in /  34875.8 hPa Calm     98 % 0.0 in /  0 mm
22:18 3.3 °F /  -15.9 °C 3.1 °F /  -16.1 °C 1030.0 in /  34875.8 hPa Calm     98 % 0.0 in /  0 mm
22:23 3.3 °F /  -15.9 °C 3.1 °F /  -16.1 °C 1030.0 in /  34875.8 hPa Calm     98 % 0.0 in /  0 mm
22:28 3.3 °F /  -15.9 °C 3.1 °F /  -16.1 °C 1030.0 in /  34875.8 hPa Calm     98 % 0.0 in /  0 mm
22:33 3.6 °F /  -15.8 °C 3.2 °F /  -16 °C 1030.0 in /  34875.8 hPa Calm     98 % 0.0 in /  0 mm
22:38 3.6 °F /  -15.8 °C 3.2 °F /  -16 °C 1030.0 in /  34875.8 hPa Calm     98 % 0.0 in /  0 mm
22:43 3.6 °F /  -15.8 °C 3.2 °F /  -16 °C 1030.0 in /  34875.8 hPa Calm     98 % 0.0 in /  0 mm
22:48 3.6 °F /  -15.8 °C 3.2 °F /  -16 °C 1030.0 in /  34875.8 hPa Calm     98 % 0.0 in /  0 mm
22:53 3.6 °F /  -15.8 °C 3.2 °F /  -16 °C 1030.0 in /  34875.8 hPa Calm     98 % 0.0 in /  0 mm
22:58 3.6 °F /  -15.8 °C 3.2 °F /  -16 °C 1030.0 in /  34875.8 hPa Calm     98 % 0.0 in /  0 mm
23:03 3.6 °F /  -15.8 °C 3.2 °F /  -16 °C 1030.0 in /  34875.8 hPa Calm     98 % 0.0 in /  0 mm
23:04 3.6 °F /  -15.8 °C 3.2 °F /  -16 °C 1030.0 in /  34875.8 hPa Calm     98 % 0.0 in /  0 mm
23:09 3.6 °F /  -15.8 °C 3.2 °F /  -16 °C 1030.0 in /  34875.8 hPa Calm     98 % 0.0 in /  0 mm
23:14 3.6 °F /  -15.8 °C 3.2 °F /  -16 °C 1030.0 in /  34875.8 hPa Calm     98 % 0.0 in /  0 mm
23:19 3.6 °F /  -15.8 °C 3.3 °F /  -15.9 °C 1030.0 in /  34875.8 hPa Calm     98 % 0.0 in /  0 mm
23:24 3.6 °F /  -15.8 °C 3.3 °F /  -15.9 °C 1030.0 in /  34875.8 hPa Calm     98 % 0.0 in /  0 mm
23:29 3.6 °F /  -15.8 °C 3.3 °F /  -15.9 °C 1030.0 in /  34875.8 hPa Calm     98 % 0.0 in /  0 mm
23:34 3.6 °F /  -15.8 °C 3.3 °F /  -15.9 °C 1030.0 in /  34875.8 hPa Calm     98 % 0.0 in /  0 mm
23:39 3.6 °F /  -15.8 °C 3.3 °F /  -15.9 °C 1030.0 in /  34875.8 hPa Calm     98 % 0.0 in /  0 mm
23:44 3.7 °F /  -15.7 °C 3.4 °F /  -15.9 °C 1030.0 in /  34875.8 hPa Calm   5.5 mph /  8.9 km/h 98 % 0.0 in /  0 mm
23:49 3.8 °F /  -15.7 °C 3.6 °F /  -15.8 °C 1030.0 in /  34875.8 hPa Calm   5.5 mph /  8.9 km/h 98 % 0.0 in /  0 mm
23:54 3.9 °F /  -15.6 °C 3.6 °F /  -15.8 °C 1030.0 in /  34875.8 hPa Calm     98 % 0.0 in /  0 mm
23:59 4.0 °F /  -15.6 °C 3.7 °F /  -15.7 °C 1030.0 in /  34875.8 hPa NNE 1.8 mph /  2.9 km/h 4.0 mph /  6.4 km/h 98 % 0.0 in /  0 mm
Le Gheer Warneton
Courtoisie de Weather Underground - 1.75 mb

Mise a jour : 18/02/2018 06:18:12
Généré par Cumulus 1.9.4 (1099)